Flight Track Log - Related Links

Times and Time Zones

All times are in EDT time to prevent confusion due to time zone crossing. See the EGF4247 flight status page for this flight to view local times or setup timezone preferences in your user account.

Time Position Orientation Groundspeed Altitude Reporting Facility
EDT Latitude Longitude Course Direction KTS MPH feet Rate Location/Type
Mon 03:51:49 PM 42.9167 -78.7500 270° West 165 190 1,600  Level Buffalo TRACON
Mon 03:52:19 PM 42.9000 -78.7667 216° Southwest 170 196 2,500 2,000 Climbing Buffalo TRACON
Mon 03:53:07 PM 42.8833 -78.8167 246° West 212 244 4,200 2,250 Climbing Buffalo TRACON
Mon 03:54:00 PM 42.9509 -79.0778 277° West  Level FlightAware Approximate
Mon 03:54:19 PM 42.8833 -78.9333 270° West 278 320 7,000  Level Buffalo TRACON
Mon 03:54:57 PM 42.8833 -78.9667 270° West 260 299 8,700 1,898 Climbing Toronto Center
Mon 03:55:00 PM 42.9610 -79.1983 277° West  Level FlightAware Approximate
Mon 03:55:57 PM 42.9000 -79.0833 281° West 270 311 10,100  Level Toronto Center
Mon 03:56:00 PM 42.9667 -79.3191 270° West  Level FlightAware Approximate
Mon 03:56:57 PM 42.9167 -79.2000 281° West 300 345 12,400  Level Toronto Center
Mon 03:57:00 PM 42.9667 -79.4404 270° West  Level FlightAware Approximate
Mon 03:57:57 PM 42.9333 -79.3167 281° West 300 345 14,500  Level Toronto Center
Mon 03:58:57 PM 42.9500 -79.4333 281° West 310 357 16,600 1,800 Climbing Toronto Center
Mon 03:59:57 PM 42.9500 -79.5500 270° West 310 357 18,100 1,650 Climbing Toronto Center
Mon 04:00:57 PM 42.9500 -79.6500 270° West 300 345 19,900 1,700 Climbing Toronto Center
Mon 04:01:57 PM 42.9667 -79.7667 281° West 320 368 21,500 1,550 Climbing Toronto Center
Mon 04:02:57 PM 42.9667 -79.9000 270° West 330 380 23,000 1,550 Climbing Toronto Center
Mon 04:03:57 PM 42.9833 -80.0167 281° West 330 380 24,600 1,550 Climbing Toronto Center
Mon 04:04:57 PM 42.9833 -80.1500 270° West 340 391 26,100 1,500 Climbing Toronto Center
Mon 04:05:57 PM 42.9833 -80.2667 270° West 340 391 27,600 1,450 Climbing Toronto Center
Mon 04:06:57 PM 43.0000 -80.4000 280° West 330 380 29,000 1,250 Climbing Toronto Center
Mon 04:07:57 PM 43.0000 -80.5500 270° West 330 380 30,100 1,050 Climbing Toronto Center
Mon 04:08:57 PM 43.0167 -80.6667 281° West 340 391 31,100 950 Climbing Toronto Center
Mon 04:09:57 PM 43.0167 -80.8000 270° West 350 403 32,000 450 Climbing Toronto Center
Mon 04:10:57 PM 43.0167 -80.9333 270° West 370 426 32,000  Level Toronto Center
Mon 04:11:57 PM 43.0167 -81.1000 270° West 390 449 32,000  Level Toronto Center
Mon 04:12:57 PM 43.0167 -81.2333 270° West 380 437 32,000  Level Toronto Center
Mon 04:13:57 PM 43.0167 -81.3667 270° West 380 437 32,000  Level Toronto Center
Mon 04:14:57 PM 43.0167 -81.5333 270° West 380 437 32,000  Level Toronto Center
Mon 04:15:57 PM 43.0167 -81.6833 270° West 390 449 32,000  Level Toronto Center
Mon 04:16:57 PM 43.0167 -81.8167 270° West 390 449 32,000  Level Toronto Center
Mon 04:17:57 PM 43.0000 -81.9833 262° West 390 449 32,000  Level Toronto Center
Mon 04:18:57 PM 43.0000 -82.1167 270° West 390 449 32,000  Level Toronto Center
Mon 04:19:57 PM 43.0000 -82.2833 270° West 390 449 32,000  Level Toronto Center
Mon 04:20:57 PM 43.0000 -82.4167 270° West 390 449 32,000  Level Toronto Center
Mon 04:21:57 PM 43.0000 -82.5667 270° West 390 449 32,000  Level Toronto Center
Mon 04:22:37 PM 43.0022 -82.6611 272° West 396 456 32,000  Level Cleveland Center
Mon 04:23:37 PM 42.9972 -82.8086 267° West 396 456 32,000  Level Cleveland Center
Mon 04:24:37 PM 42.9922 -82.9561 267° West 396 456 32,000  Level Cleveland Center
Mon 04:25:37 PM 42.9892 -83.1064 268° West 401 461 32,000  Level Cleveland Center
Mon 04:26:37 PM 42.9836 -83.2539 267° West 401 461 32,000  Level Cleveland Center
Mon 04:27:37 PM 42.9781 -83.4011 267° West 401 461 32,000  Level Cleveland Center
Mon 04:28:37 PM 42.9722 -83.5483 267° West 401 461 32,000  Level Cleveland Center
Mon 04:29:37 PM 42.9683 -83.7017 268° West 401 461 32,000  Level Cleveland Center
Mon 04:30:37 PM 42.9558 -83.8483 263° West 401 461 32,000  Level Cleveland Center
Mon 04:31:37 PM 42.9414 -83.9925 262° West 401 461 32,000  Level Cleveland Center
Mon 04:33:57 PM 42.9000 -84.3500 261° West 390 449 32,000  Level Toronto Center
Mon 04:34:57 PM 42.8833 -84.4833 260° West 390 449 32,000  Level Toronto Center
Mon 04:35:57 PM 42.8667 -84.6333 261° West 390 449 32,000  Level Toronto Center
Mon 04:36:12 PM 42.8756 -84.6719 287° West 387 445 32,000  Level Chicago Center
Mon 04:37:14 PM 42.8600 -84.8164 262° West 386 444 32,000  Level Chicago Center
Mon 04:38:16 PM 42.8461 -84.9608 263° West 385 443 32,000  Level Chicago Center
Mon 04:39:18 PM 42.8300 -85.1033 261° West 381 438 32,000  Level Chicago Center
Mon 04:40:20 PM 42.8150 -85.2444 262° West 379 436 32,000 -484 Level Chicago Center
Mon 04:41:22 PM 42.7967 -85.4158 262° West 381 438 31,000 -1,452 Descending Chicago Center
Mon 04:42:24 PM 42.7764 -85.5644 260° West 395 455 29,000 -1,935 Descending Chicago Center
Mon 04:43:26 PM 42.7472 -85.7183 256° West 415 478 27,000 -1,887 Descending Chicago Center
Mon 04:44:28 PM 42.7194 -85.8689 256° West 409 471 25,100 -1,887 Descending Chicago Center
Mon 04:45:30 PM 42.6922 -86.0197 256° West 408 470 23,100 -1,935 Descending Chicago Center
Mon 04:46:32 PM 42.6644 -86.1714 256° West 410 472 21,100 -1,935 Descending Chicago Center
Mon 04:47:34 PM 42.6369 -86.3194 256° West 406 467 19,100 -1,968 Descending Chicago Center
Mon 04:48:37 PM 42.6056 -86.4858 256° West 383 441 17,000 -1,920 Descending Chicago Center
Mon 04:49:39 PM 42.5789 -86.6228 255° West 377 434 15,100 -1,790 Descending Chicago Center
Mon 04:50:41 PM 42.5550 -86.7550 256° West 365 420 13,300 -1,597 Descending Chicago Center
Mon 04:51:43 PM 42.5194 -86.8808 249° West 359 413 11,800 -1,355 Descending Chicago Center
Mon 04:52:45 PM 42.4850 -87.0022 249° West 350 403 10,500 -871 Descending Chicago Center
Mon 04:53:47 PM 42.4531 -87.1153 249° West 321 369 10,000 -629 Descending Chicago Center
Mon 04:54:49 PM 42.4292 -87.2086 251° West 269 310 9,200 -919 Descending Chicago Center
Mon 04:55:51 PM 42.4006 -87.3200 251° West 265 305 8,100 -1,024 Descending Chicago Center
Mon 04:56:52 PM 42.3797 -87.4128 253° West 269 310 7,100 -537 Descending Chicago Center
Mon 04:57:54 PM 42.3533 -87.5061 249° West 269 310 7,000 -48 Descending Chicago Center
Mon 04:58:56 PM 42.2897 -87.5683 216° Southwest 259 298 7,000 -97 Level Chicago Center
Mon 04:59:58 PM 42.2356 -87.6350 222° Southwest 264 304 6,800 -726 Descending Chicago Center
Mon 05:01:00 PM 42.1803 -87.6922 217° Southwest 255 293 5,500 -1,258 Descending Chicago Center

Login

Don't have an account? Register now (free) for customized features, flight alerts, and more!